createdAt,value
2023-09-25T00:02:11.216Z,4.22
2023-09-25T00:04:39.081Z,3.30
2023-09-25T00:07:06.953Z,3.30
2023-09-25T00:09:34.814Z,3.42
2023-09-25T00:12:02.739Z,3.72
2023-09-25T00:14:32.541Z,3.95
2023-09-25T00:17:00.500Z,3.70
2023-09-25T00:19:28.369Z,3.30
2023-09-25T00:21:56.213Z,3.70
2023-09-25T00:24:24.386Z,3.75
2023-09-25T00:26:52.256Z,3.83
2023-09-25T00:29:20.037Z,4.00
2023-09-25T00:31:49.248Z,3.97
2023-09-25T00:34:17.078Z,4.30
2023-09-25T00:36:45.328Z,4.10
2023-09-25T00:39:13.660Z,4.20
2023-09-25T00:41:41.490Z,4.10
2023-09-25T00:44:09.271Z,3.78
2023-09-25T00:46:37.523Z,4.43
2023-09-25T00:49:06.771Z,4.18
2023-09-25T00:51:34.840Z,4.53
2023-09-25T00:54:03.040Z,4.20
2023-09-25T00:56:31.112Z,4.60
2023-09-25T00:58:58.928Z,4.78
2023-09-25T01:01:26.677Z,4.85
2023-09-25T01:03:54.477Z,4.78
2023-09-25T01:06:24.606Z,4.82
2023-09-25T01:08:52.429Z,4.72
2023-09-25T01:11:20.205Z,4.97
2023-09-25T01:13:48.077Z,5.55
2023-09-25T01:16:16.380Z,5.20
2023-09-25T01:18:44.433Z,5.35
2023-09-25T01:21:12.824Z,5.20
2023-09-25T01:23:41.930Z,5.40
2023-09-25T01:26:09.643Z,5.55
2023-09-25T01:28:37.977Z,5.53
2023-09-25T01:31:08.336Z,5.40
2023-09-25T01:33:36.748Z,5.22
2023-09-25T01:36:04.738Z,5.88
2023-09-25T01:38:32.483Z,5.90
2023-09-25T01:41:02.007Z,5.95
2023-09-25T01:43:29.797Z,5.63
2023-09-25T01:45:57.544Z,5.55
2023-09-25T01:48:26.544Z,5.32
2023-09-25T01:50:54.750Z,5.70
2023-09-25T01:53:23.540Z,6.60
2023-09-25T01:55:51.324Z,5.85
2023-09-25T01:58:20.373Z,6.45
2023-09-25T02:00:48.138Z,6.13
2023-09-25T02:03:15.987Z,6.03
2023-09-25T02:05:45.904Z,6.28
2023-09-25T02:08:13.719Z,6.88
2023-09-25T02:10:41.883Z,6.20
2023-09-25T02:13:10.384Z,6.68
2023-09-25T02:15:39.554Z,6.05
2023-09-25T02:18:09.903Z,5.15
2023-09-25T02:20:37.864Z,6.00
2023-09-25T02:23:06.588Z,6.43
2023-09-25T02:25:34.444Z,6.25
2023-09-25T02:28:02.183Z,6.55
2023-09-25T02:30:30.146Z,6.57
2023-09-25T02:33:00.914Z,6.00
2023-09-25T02:35:28.863Z,6.65
2023-09-25T02:37:56.769Z,6.30
2023-09-25T02:40:25.202Z,6.80
2023-09-25T02:42:52.961Z,6.65
2023-09-25T02:45:20.871Z,6.75
2023-09-25T02:47:48.751Z,6.68
2023-09-25T02:50:17.962Z,7.07
2023-09-25T02:52:46.025Z,7.57
2023-09-25T02:55:14.512Z,7.28
2023-09-25T02:57:42.640Z,7.43
2023-09-25T03:00:11.999Z,7.18
2023-09-25T03:02:40.315Z,6.97
2023-09-25T03:05:08.374Z,7.80
2023-09-25T03:07:38.254Z,6.60
2023-09-25T03:10:07.246Z,7.60
2023-09-25T03:12:35.102Z,7.07
2023-09-25T03:15:04.100Z,7.50
2023-09-25T03:17:33.011Z,7.38
2023-09-25T03:20:00.895Z,7.25
2023-09-25T03:22:28.692Z,6.80
2023-09-25T03:24:58.896Z,7.15
2023-09-25T03:27:26.765Z,7.32
2023-09-25T03:29:55.017Z,7.10
2023-09-25T03:32:22.830Z,7.65
2023-09-25T03:34:50.663Z,7.65
2023-09-25T03:37:21.571Z,7.30
2023-09-25T03:39:50.189Z,8.68
2023-09-25T03:42:19.304Z,7.65
2023-09-25T03:44:47.102Z,8.60
2023-09-25T03:47:15.065Z,8.15
2023-09-25T03:49:45.096Z,6.97
2023-09-25T03:52:12.952Z,7.68
2023-09-25T03:54:40.742Z,8.48
2023-09-25T03:57:08.588Z,8.23
2023-09-25T03:59:37.689Z,8.02
2023-09-25T04:02:06.406Z,7.75
2023-09-25T04:04:34.351Z,8.50
2023-09-25T04:07:02.477Z,8.35
2023-09-25T04:09:30.389Z,7.63
2023-09-25T04:11:58.592Z,8.35
2023-09-25T04:14:29.080Z,8.85
2023-09-25T04:16:58.223Z,8.77
2023-09-25T04:19:26.151Z,8.07
2023-09-25T04:21:53.999Z,8.80
2023-09-25T04:24:21.765Z,9.13
2023-09-25T04:26:49.503Z,9.63
2023-09-25T04:29:19.209Z,8.57
2023-09-25T04:31:47.477Z,9.63
2023-09-25T04:34:16.805Z,8.63
2023-09-25T04:36:47.284Z,9.63
2023-09-25T04:39:17.812Z,9.30
2023-09-25T04:41:46.370Z,9.35
2023-09-25T04:44:14.372Z,8.27
2023-09-25T04:46:42.318Z,9.30
2023-09-25T04:49:10.192Z,10.20
2023-09-25T04:51:40.101Z,9.55
2023-09-25T04:54:07.947Z,9.27
2023-09-25T04:56:35.747Z,10.40
2023-09-25T04:59:03.551Z,10.30
2023-09-25T05:01:31.597Z,10.95
2023-09-25T05:03:59.479Z,10.00
2023-09-25T05:06:27.492Z,11.10
2023-09-25T05:08:56.782Z,10.75
2023-09-25T05:11:24.585Z,10.82
2023-09-25T05:13:52.503Z,11.70
2023-09-25T05:16:20.425Z,11.63
2023-09-25T05:18:48.752Z,10.85
2023-09-25T05:21:16.629Z,11.95
2023-09-25T05:23:46.087Z,12.77
2023-09-25T05:26:15.312Z,11.70
2023-09-25T05:28:43.066Z,27.52
2023-09-25T05:31:11.192Z,14.98
2023-09-25T05:33:39.040Z,11.25
2023-09-25T05:36:07.750Z,11.75
2023-09-25T05:38:35.573Z,11.48
2023-09-25T05:41:03.389Z,12.38
2023-09-25T05:43:32.879Z,11.88
2023-09-25T05:46:01.056Z,11.68
2023-09-25T05:48:29.660Z,11.63
2023-09-25T05:50:57.450Z,11.30
2023-09-25T05:53:26.857Z,11.38
2023-09-25T05:55:54.694Z,11.35
2023-09-25T05:58:22.439Z,12.27
2023-09-25T06:00:51.718Z,10.27
2023-09-25T06:03:19.757Z,10.77
2023-09-25T06:05:47.571Z,10.52
2023-09-25T06:08:15.291Z,9.32
2023-09-25T06:10:43.093Z,9.00
2023-09-25T06:13:11.033Z,9.68
2023-09-25T06:15:38.946Z,9.77
2023-09-25T06:18:10.439Z,8.57
2023-09-25T06:20:39.811Z,9.50
2023-09-25T06:23:07.845Z,9.00
2023-09-25T06:25:36.270Z,8.80
2023-09-25T06:28:04.628Z,8.55
2023-09-25T06:30:32.587Z,8.80
2023-09-25T06:33:03.102Z,9.23
2023-09-25T06:35:32.494Z,8.75
2023-09-25T06:38:00.282Z,7.60
2023-09-25T06:40:28.281Z,8.63
2023-09-25T06:42:56.613Z,8.55
2023-09-25T06:45:24.531Z,7.78
2023-09-25T06:47:52.488Z,7.70
2023-09-25T06:50:20.783Z,7.78
2023-09-25T06:52:49.918Z,7.97
2023-09-25T06:55:17.791Z,8.00
2023-09-25T06:57:46.129Z,7.90
2023-09-25T07:00:15.423Z,7.93
2023-09-25T07:02:43.515Z,8.30
2023-09-25T07:05:13.780Z,7.00
2023-09-25T07:07:41.797Z,7.97
2023-09-25T07:10:12.116Z,8.30
2023-09-25T07:12:40.295Z,8.13
2023-09-25T07:15:08.697Z,6.93
2023-09-25T07:17:36.599Z,7.65
2023-09-25T07:20:06.649Z,6.95
2023-09-25T07:22:35.070Z,7.65
2023-09-25T07:25:03.311Z,7.07
2023-09-25T07:27:32.876Z,7.25
2023-09-25T07:30:02.637Z,6.90
2023-09-25T07:32:30.781Z,6.88
2023-09-25T07:34:59.458Z,7.30
2023-09-25T07:37:27.369Z,7.35
2023-09-25T07:39:55.572Z,6.82
2023-09-25T07:42:23.373Z,6.22
2023-09-25T07:44:52.873Z,6.97
2023-09-25T07:47:20.879Z,6.90
2023-09-25T07:49:48.757Z,7.20
2023-09-25T07:52:21.440Z,7.35
2023-09-25T07:54:50.734Z,6.70
2023-09-25T07:57:20.403Z,6.35
2023-09-25T07:59:48.533Z,6.75
2023-09-25T08:02:19.451Z,6.25
2023-09-25T08:04:48.741Z,6.65
2023-09-25T08:07:16.677Z,5.80
2023-09-25T08:09:44.610Z,6.90
2023-09-25T08:12:12.439Z,6.75
2023-09-25T08:14:40.537Z,5.57
2023-09-25T08:17:09.800Z,5.15
2023-09-25T08:19:40.070Z,4.65
2023-09-25T08:22:08.962Z,5.32
2023-09-25T08:24:36.914Z,4.55
2023-09-25T08:27:05.896Z,4.78
2023-09-25T08:29:33.777Z,4.60
2023-09-25T08:32:02.235Z,4.20
2023-09-25T08:34:30.086Z,4.50
2023-09-25T08:36:59.307Z,4.68
2023-09-25T08:39:27.196Z,4.18
2023-09-25T08:41:55.219Z,4.43
2023-09-25T08:44:23.300Z,3.17
2023-09-25T08:46:51.733Z,3.15
2023-09-25T08:49:20.040Z,3.50
2023-09-25T08:51:48.267Z,4.35
2023-09-25T08:54:19.160Z,2.80
2023-09-25T08:56:48.658Z,3.08
2023-09-25T08:59:17.270Z,3.15
2023-09-25T09:01:46.535Z,3.03
2023-09-25T09:04:15.826Z,3.03
2023-09-25T09:06:43.840Z,2.50
2023-09-25T09:09:14.467Z,3.20
2023-09-25T09:11:51.987Z,3.00
2023-09-25T09:14:33.321Z,3.25
2023-09-25T09:17:01.103Z,2.70
2023-09-25T09:19:28.977Z,2.90
2023-09-25T09:22:03.852Z,3.00
2023-09-25T09:24:33.362Z,3.10
2023-09-25T09:27:03.323Z,2.78
2023-09-25T09:29:35.983Z,3.10
2023-09-25T09:32:03.916Z,3.58
2023-09-25T09:34:32.536Z,3.15
2023-09-25T09:37:00.604Z,4.22
2023-09-25T09:39:35.742Z,3.30
2023-09-25T09:42:06.806Z,3.40
2023-09-25T09:44:34.881Z,3.28
2023-09-25T09:47:04.010Z,3.42
2023-09-25T09:49:32.869Z,3.10
2023-09-25T09:52:02.369Z,3.28
2023-09-25T09:54:32.739Z,3.25
2023-09-25T09:57:01.540Z,3.20
2023-09-25T09:59:30.814Z,3.40
2023-09-25T10:01:59.842Z,3.33
2023-09-25T10:04:27.984Z,3.22
2023-09-25T10:07:00.778Z,3.30
2023-09-25T10:09:28.902Z,3.50
2023-09-25T10:11:59.558Z,3.67
2023-09-25T10:14:30.703Z,3.22
2023-09-25T10:17:04.914Z,3.33
2023-09-25T10:19:46.867Z,3.00
2023-09-25T10:22:18.039Z,3.28
2023-09-25T10:24:47.606Z,3.00
2023-09-25T10:27:16.350Z,2.97
2023-09-25T10:29:59.228Z,3.38
2023-09-25T10:32:32.850Z,3.05
2023-09-25T10:35:15.564Z,3.58
2023-09-25T10:37:59.269Z,3.53
2023-09-25T10:40:27.171Z,3.38
2023-09-25T10:42:54.957Z,3.05
2023-09-25T10:45:23.428Z,3.20
2023-09-25T10:47:52.686Z,3.03
2023-09-25T10:50:20.671Z,2.88
2023-09-25T10:52:48.427Z,2.83
2023-09-25T10:55:16.708Z,2.95
2023-09-25T10:57:44.934Z,3.10
2023-09-25T11:00:16.079Z,2.75
2023-09-25T11:02:44.491Z,2.10
2023-09-25T11:05:15.092Z,1.98
2023-09-25T11:07:42.908Z,2.20
2023-09-25T11:10:11.776Z,1.70
2023-09-25T11:12:39.662Z,2.10
2023-09-25T11:15:11.307Z,1.80
2023-09-25T11:17:39.320Z,1.90
2023-09-25T11:20:12.388Z,1.45
2023-09-25T11:22:42.212Z,1.95
2023-09-25T11:25:12.218Z,2.10
2023-09-25T11:27:40.180Z,2.05
2023-09-25T11:30:09.247Z,2.00
2023-09-25T11:32:37.180Z,2.15
2023-09-25T11:35:05.289Z,1.73
2023-09-25T11:37:33.409Z,1.48
2023-09-25T11:40:02.783Z,1.70
2023-09-25T11:42:30.940Z,1.45
2023-09-25T11:44:59.095Z,1.50
2023-09-25T11:47:26.900Z,1.63
2023-09-25T11:49:54.640Z,1.90
2023-09-25T11:52:22.423Z,1.67
2023-09-25T11:54:50.234Z,1.60
2023-09-25T11:57:19.450Z,2.13
2023-09-25T11:59:47.337Z,1.60
2023-09-25T12:02:15.258Z,1.50
2023-09-25T12:04:43.991Z,1.42
2023-09-25T12:07:11.981Z,1.50
2023-09-25T12:09:39.793Z,1.38
2023-09-25T12:12:07.846Z,1.73
2023-09-25T12:14:36.962Z,1.42
2023-09-25T12:17:10.964Z,1.50
2023-09-25T12:19:40.148Z,1.73
2023-09-25T12:22:08.031Z,1.55
2023-09-25T12:24:36.042Z,1.75
2023-09-25T12:27:05.670Z,1.85
2023-09-25T12:29:34.118Z,1.83
2023-09-25T12:32:03.830Z,1.80
2023-09-25T12:34:31.725Z,1.77
2023-09-25T12:36:59.676Z,1.60
2023-09-25T12:39:27.641Z,1.73
2023-09-25T12:41:59.422Z,1.33
2023-09-25T12:44:34.250Z,1.90
2023-09-25T12:47:03.617Z,1.90
2023-09-25T12:49:31.581Z,1.98
2023-09-25T12:51:59.536Z,1.80
2023-09-25T12:54:27.339Z,1.88
2023-09-25T12:56:55.153Z,1.80
2023-09-25T12:59:22.938Z,1.48
2023-09-25T13:01:52.778Z,1.80
2023-09-25T13:04:22.439Z,2.05
2023-09-25T13:06:51.650Z,2.08
2023-09-25T13:09:21.304Z,1.83
2023-09-25T13:11:50.194Z,2.28
2023-09-25T13:14:18.158Z,1.60
2023-09-25T13:16:46.554Z,1.88
2023-09-25T13:19:14.704Z,2.08
2023-09-25T13:21:43.829Z,2.00
2023-09-25T13:24:11.768Z,2.00
2023-09-25T13:26:39.641Z,2.17
2023-09-25T13:29:08.567Z,2.00
2023-09-25T13:31:36.821Z,1.90
2023-09-25T13:34:04.756Z,2.03
2023-09-25T13:36:33.287Z,2.00
2023-09-25T13:39:02.564Z,2.10
2023-09-25T13:41:30.328Z,1.70
2023-09-25T13:44:00.183Z,2.22
2023-09-25T13:46:28.161Z,2.03
2023-09-25T13:48:56.106Z,1.83
2023-09-25T13:51:24.143Z,2.10
2023-09-25T13:53:53.228Z,2.25
2023-09-25T13:56:23.192Z,2.40
2023-09-25T13:58:53.150Z,2.00
2023-09-25T14:01:21.017Z,1.90
2023-09-25T14:03:49.189Z,2.00
2023-09-25T14:06:17.209Z,1.55
2023-09-25T14:08:44.995Z,2.25
2023-09-25T14:11:14.292Z,2.25
2023-09-25T14:13:43.533Z,2.22
2023-09-25T14:16:12.195Z,2.33
2023-09-25T14:18:40.853Z,2.08
2023-09-25T14:21:14.630Z,2.78
2023-09-25T14:23:43.464Z,2.00
2023-09-25T14:26:11.486Z,2.67
2023-09-25T14:28:39.247Z,2.50
2023-09-25T14:31:08.483Z,2.67
2023-09-25T14:33:40.529Z,1.90
2023-09-25T14:36:08.745Z,2.00
2023-09-25T14:38:36.507Z,2.67
2023-09-25T14:41:06.727Z,1.63
2023-09-25T14:43:35.294Z,2.10
2023-09-25T14:46:04.060Z,1.88
2023-09-25T14:48:34.642Z,1.90
2023-09-25T14:51:02.619Z,2.15
2023-09-25T14:53:30.442Z,2.03
2023-09-25T14:55:58.280Z,2.30
2023-09-25T14:58:26.851Z,1.90
2023-09-25T15:00:58.518Z,2.10
2023-09-25T15:03:26.837Z,1.95
2023-09-25T15:05:56.257Z,2.03
2023-09-25T15:08:25.305Z,2.08
2023-09-25T15:10:53.901Z,2.10
2023-09-25T15:13:21.745Z,2.00
2023-09-25T15:15:50.085Z,2.03
2023-09-25T15:18:17.841Z,2.03
2023-09-25T15:20:45.717Z,2.72
2023-09-25T15:23:14.823Z,2.30
2023-09-25T15:25:43.512Z,2.33
2023-09-25T15:28:11.435Z,2.50
2023-09-25T15:30:39.275Z,3.10
2023-09-25T15:33:07.135Z,2.85
2023-09-25T15:35:35.033Z,2.42
2023-09-25T15:38:02.894Z,2.40
2023-09-25T15:40:32.090Z,2.70
2023-09-25T15:42:59.847Z,2.60
2023-09-25T15:45:27.822Z,2.83
2023-09-25T15:47:57.505Z,3.00
2023-09-25T15:50:30.428Z,2.85
2023-09-25T15:52:58.130Z,2.83
2023-09-25T15:55:25.854Z,2.58
2023-09-25T15:57:55.032Z,2.70
2023-09-25T16:00:24.482Z,2.90
2023-09-25T16:02:53.824Z,2.70
2023-09-25T16:05:21.920Z,2.90
2023-09-25T16:07:49.682Z,2.55
2023-09-25T16:10:17.536Z,2.53
2023-09-25T16:12:45.389Z,2.70
2023-09-25T16:15:14.812Z,2.90
2023-09-25T16:17:42.938Z,2.50
2023-09-25T16:20:10.915Z,2.63
2023-09-25T16:22:38.982Z,3.28
2023-09-25T16:25:07.162Z,5.70
2023-09-25T16:27:35.507Z,3.90
2023-09-25T16:30:03.660Z,2.78
2023-09-25T16:32:33.502Z,2.60
2023-09-25T16:35:01.537Z,4.35
2023-09-25T16:37:29.325Z,2.22
2023-09-25T16:39:57.265Z,2.63
2023-09-25T16:42:25.279Z,2.70
2023-09-25T16:44:53.141Z,2.80
2023-09-25T16:47:23.012Z,2.67
2023-09-25T16:49:52.613Z,3.10
2023-09-25T16:52:20.662Z,3.30
2023-09-25T16:54:48.956Z,5.65
2023-09-25T16:57:16.738Z,3.42
2023-09-25T16:59:48.723Z,4.55
2023-09-25T17:02:16.684Z,3.45
2023-09-25T17:04:44.543Z,3.75
2023-09-25T17:07:17.048Z,4.05
2023-09-25T17:09:45.152Z,4.68
2023-09-25T17:12:13.445Z,5.13
2023-09-25T17:14:41.695Z,4.90
2023-09-25T17:17:10.167Z,4.68
2023-09-25T17:19:38.456Z,4.70
2023-09-25T17:22:06.237Z,4.47
2023-09-25T17:24:35.944Z,10.40
2023-09-25T17:27:03.728Z,5.30
2023-09-25T17:29:33.002Z,5.72
2023-09-25T17:32:01.087Z,6.85
2023-09-25T17:34:29.445Z,5.63
2023-09-25T17:36:59.978Z,5.20
2023-09-25T17:39:28.011Z,5.57
2023-09-25T17:41:57.156Z,5.55
2023-09-25T17:44:25.347Z,6.00
2023-09-25T17:46:53.254Z,6.55
2023-09-25T17:49:21.349Z,6.80
2023-09-25T17:51:50.194Z,7.75
2023-09-25T17:54:18.082Z,9.93
2023-09-25T17:56:46.004Z,9.20
2023-09-25T17:59:15.286Z,8.43
2023-09-25T18:01:43.076Z,7.53
2023-09-25T18:04:11.025Z,9.80
2023-09-25T18:06:38.917Z,8.82
2023-09-25T18:09:06.859Z,9.00
2023-09-25T18:11:35.205Z,8.85
2023-09-25T18:14:06.052Z,9.35
2023-09-25T18:16:35.951Z,7.95
2023-09-25T18:19:05.001Z,8.10
2023-09-25T18:21:33.911Z,7.07
2023-09-25T18:24:03.213Z,7.40
2023-09-25T18:26:31.750Z,7.57
2023-09-25T18:28:59.816Z,6.80
2023-09-25T18:31:28.815Z,7.32
2023-09-25T18:33:58.165Z,7.05
2023-09-25T18:36:26.035Z,7.07
2023-09-25T18:38:54.801Z,7.22
2023-09-25T18:41:22.805Z,7.40
2023-09-25T18:43:50.909Z,7.30
2023-09-25T18:46:19.105Z,7.70
2023-09-25T18:48:47.108Z,11.43
2023-09-25T18:51:21.710Z,7.35
2023-09-25T18:53:49.772Z,9.30
2023-09-25T18:56:19.769Z,9.02
2023-09-25T18:58:47.681Z,7.80
2023-09-25T19:01:15.575Z,7.68
2023-09-25T19:03:43.800Z,7.68
2023-09-25T19:06:11.673Z,7.30
2023-09-25T19:08:41.169Z,8.25
2023-09-25T19:11:09.295Z,8.35
2023-09-25T19:13:43.266Z,8.30
2023-09-25T19:16:11.648Z,8.70
2023-09-25T19:18:42.141Z,9.50
2023-09-25T19:21:11.605Z,8.35
2023-09-25T19:23:41.334Z,8.90
2023-09-25T19:26:09.272Z,8.13
2023-09-25T19:28:37.496Z,9.10
2023-09-25T19:31:10.722Z,40.35
2023-09-25T19:33:57.364Z,9.43
2023-09-25T19:36:26.594Z,9.48
2023-09-25T19:38:55.875Z,10.50
2023-09-25T19:41:23.749Z,10.88
2023-09-25T19:43:53.111Z,12.05
2023-09-25T19:46:21.482Z,10.13
2023-09-25T19:48:49.398Z,10.70
2023-09-25T19:51:17.301Z,10.93
2023-09-25T19:53:45.577Z,10.93
2023-09-25T19:56:14.830Z,10.98
2023-09-25T19:58:42.582Z,11.07
2023-09-25T20:01:11.606Z,40.70
2023-09-25T20:03:39.986Z,18.02
2023-09-25T20:06:08.104Z,11.68
2023-09-25T20:08:36.465Z,10.95
2023-09-25T20:11:04.859Z,13.05
2023-09-25T20:13:34.070Z,12.25
2023-09-25T20:16:02.024Z,12.60
2023-09-25T20:18:29.881Z,13.00
2023-09-25T20:20:58.069Z,12.80
2023-09-25T20:23:27.406Z,14.15
2023-09-25T20:25:55.454Z,13.02
2023-09-25T20:28:23.280Z,11.93
2023-09-25T20:30:52.575Z,12.10
2023-09-25T20:33:20.729Z,12.25
2023-09-25T20:35:48.549Z,11.40
2023-09-25T20:38:16.403Z,12.52
2023-09-25T20:40:44.274Z,12.75
2023-09-25T20:43:12.127Z,12.05
2023-09-25T20:45:40.881Z,11.20
2023-09-25T20:48:10.705Z,11.27
2023-09-25T20:50:38.525Z,12.07
2023-09-25T20:53:06.373Z,12.57
2023-09-25T20:55:34.229Z,14.77
2023-09-25T20:58:04.293Z,14.68
2023-09-25T21:00:32.464Z,16.92
2023-09-25T21:03:00.391Z,15.55
2023-09-25T21:05:29.672Z,16.05
2023-09-25T21:07:57.505Z,15.55
2023-09-25T21:10:25.278Z,15.80
2023-09-25T21:12:53.259Z,15.25
2023-09-25T21:15:21.367Z,15.40
2023-09-25T21:17:49.218Z,15.32
2023-09-25T21:20:17.147Z,15.02
2023-09-25T21:22:46.361Z,15.00
2023-09-25T21:25:14.283Z,14.15
2023-09-25T21:27:42.060Z,13.07
2023-09-25T21:30:10.392Z,13.65
2023-09-25T21:32:38.267Z,13.82
2023-09-25T21:35:06.608Z,13.23
2023-09-25T21:37:34.426Z,13.50
2023-09-25T21:40:04.447Z,12.82
2023-09-25T21:42:32.413Z,12.13
2023-09-25T21:45:00.234Z,13.95
2023-09-25T21:47:28.151Z,14.65
2023-09-25T21:49:55.986Z,14.40
2023-09-25T21:52:23.796Z,14.07
2023-09-25T21:54:54.645Z,13.75
2023-09-25T21:57:23.877Z,15.82
2023-09-25T21:59:51.723Z,17.63
2023-09-25T22:02:20.636Z,19.20
2023-09-25T22:04:49.936Z,18.70
2023-09-25T22:07:17.980Z,19.45
2023-09-25T22:09:45.843Z,18.52
2023-09-25T22:12:13.673Z,19.10
2023-09-25T22:14:42.842Z,19.52
2023-09-25T22:17:11.149Z,19.75
2023-09-25T22:19:39.545Z,19.25
2023-09-25T22:22:07.355Z,18.80
2023-09-25T22:24:35.498Z,18.38
2023-09-25T22:27:03.293Z,19.30
2023-09-25T22:29:31.191Z,20.98
2023-09-25T22:32:00.766Z,21.00
2023-09-25T22:34:28.696Z,20.20
2023-09-25T22:36:56.613Z,20.25
2023-09-25T22:39:24.784Z,21.23
2023-09-25T22:41:52.613Z,22.92
2023-09-25T22:44:20.392Z,23.58
2023-09-25T22:46:48.212Z,22.42
2023-09-25T22:49:17.623Z,23.95
2023-09-25T22:51:45.539Z,22.42
2023-09-25T22:54:13.319Z,24.52
2023-09-25T22:56:41.134Z,21.67
2023-09-25T22:59:08.922Z,20.55
2023-09-25T23:01:36.858Z,19.42
2023-09-25T23:04:04.940Z,21.42
2023-09-25T23:06:34.484Z,19.85
2023-09-25T23:09:04.669Z,19.67
2023-09-25T23:11:32.504Z,20.58
2023-09-25T23:14:00.292Z,21.52
2023-09-25T23:16:28.098Z,19.92
2023-09-25T23:18:56.053Z,19.55
2023-09-25T23:21:23.888Z,25.20
2023-09-25T23:23:53.006Z,25.65
2023-09-25T23:26:20.926Z,26.15
2023-09-25T23:28:48.693Z,26.98
2023-09-25T23:31:16.631Z,30.67
2023-09-25T23:33:44.491Z,26.02
2023-09-25T23:36:12.286Z,27.65
2023-09-25T23:38:40.095Z,30.00
2023-09-25T23:41:09.789Z,26.52
2023-09-25T23:43:37.571Z,28.27
2023-09-25T23:46:05.469Z,28.95
2023-09-25T23:48:34.114Z,28.88
2023-09-25T23:51:01.985Z,27.52
2023-09-25T23:53:30.282Z,27.92
2023-09-25T23:56:02.963Z,28.25
2023-09-25T23:58:32.089Z,27.05
